Startpagina
METAR-TAF:

METAR-TAF

Vliegvelden :

Internationale luchthaven van Nouakchott

Nouakchott, Mauritanië

breedte: 18-18-36N, lengte: 015-58-11W, hoogte: 3 m

Actueel weer

Dit bericht is 46 minuten geleden gemaakt, om 17:00 UTC
Wind 12 kt uit het noordwesten
Temperatuur 30°C
Vochtigheid 33%
Druk 1010 hPa
Zicht: 6000 m

METAR: GQNO 251700Z 31012KT 6000 NSC 30/12 Q1010 NOSIG

Tijdstip: 17:46 (17:46 UTC)

Verwachting

Dit bericht is 6 uur en het 46 minuten geleden gemaakt, om 11:00 UTC
Verwachting geldig van 25 om 12 UTC tot 26 om 18 UTC
Wind 14 kt uit het oostnoordoosten
Zicht: 8000 m
Wijzigt naar
van 25 om 14 UTC tot 25 om 16 UTC
Wind 14 kt uit het noorden
Wijzigt naar
van 26 om 09 UTC tot 26 om 11 UTC
Wind 12 kt uit het oostnoordoosten
Wijzigt naar
van 26 om 13 UTC tot 26 om 15 UTC
Wind 12 kt uit het noordnoordwesten

TAF: GQNO 251100Z 2512/2618 06014KT 8000 NSC BECMG 2514/2516 35014KT BECMG 2609/2611 06012KT BECMG 2613/2615 33012KT

Waarnemingen en weersverwachtingen van meer dan 4000 vliegvelden (METAR en TAF).

De beschikbare stations zijn de gele en rode punten op de kaart.

Ga met uw muis naar het station om de naam te zien.

Klik dan om waarnemingen en weersverwachtingen te zien.

kaart wijzigen: klik op de groene knoppen met een zwart kruis om in te zoomen, op de groene knop met een streepje om uit te zoomen of op de groene pijlen voor aangrenzende kaarten.


METAR-TAF: